This is the latest recevied weather packets stored in our database for station/object AG1T-1. If no packets are shown the sender has not sent any weather packets the latest 10 day(s).
| Time | Temp. | Humidity | Pressure | Rain* | Wind** | Luminosity | Snow |
|---|---|---|---|---|---|---|---|
| 1777698003 | 10° C | 51% | 1023.4 hPa | 0 mm | - | 0 W/m² | - |
| 1777697403 | 9.44° C | 55% | 1023.5 hPa | 0 mm | - | 0 W/m² | - |
| 1777696803 | 9.44° C | 56% | 1023.5 hPa | 0 mm | - | 0 W/m² | - |
| 1777696203 | 9.44° C | 56% | 1023.5 hPa | 0 mm | - | 0 W/m² | - |
| 1777695603 | 10° C | 55% | 1023.4 hPa | 0 mm | - | 0 W/m² | - |
| 1777695003 | 11.11° C | 52% | 1023.3 hPa | 0 mm | - | 0 W/m² | - |
| 1777694403 | 11.11° C | 51% | 1023.3 hPa | 0 mm | - | 0 W/m² | - |
| 1777693803 | 11.67° C | 49% | 1023.2 hPa | 0 mm | - | 0 W/m² | - |
| 1777693203 | 11.67° C | 48% | 1023 hPa | 0 mm | - | 0 W/m² | - |
| 1777692603 | 12.22° C | 48% | 1023 hPa | 0 mm | - | 0 W/m² | - |
| 1777692003 | 12.22° C | 46% | 1022.8 hPa | 0 mm | - | 0 W/m² | - |
| 1777691403 | 12.78° C | 44% | 1022.6 hPa | 0 mm | - | 0 W/m² | - |
| 1777690803 | 13.33° C | 43% | 1022.4 hPa | 0 mm | - | 0 W/m² | - |
| 1777690203 | 14.44° C | 37% | 1022.3 hPa | 0 mm | - | 0 W/m² | - |
| 1777689603 | 15° C | 35% | 1022.1 hPa | 0 mm | - | 0 W/m² | - |
| 1777689003 | 15.56° C | 35% | 1022.1 hPa | 0 mm | - | 0 W/m² | - |
| 1777688403 | 16.11° C | 35% | 1022.1 hPa | 0 mm | - | 9 W/m² | - |
| 1777687803 | 16.67° C | 33% | 1022 hPa | 0 mm | - | 14 W/m² | - |
| 1777687203 | 17.78° C | 31% | 1022 hPa | 0 mm | - | 19 W/m² | - |
| 1777686603 | 18.33° C | 25% | 1021.9 hPa | 0 mm | - | 23 W/m² | - |
| 1777686003 | 18.89° C | 26% | 1021.8 hPa | 0 mm | - | 70 W/m² | - |
| 1777685403 | 19.44° C | 24% | 1021.9 hPa | 0 mm | - | 109 W/m² | - |
| 1777684803 | 19.44° C | 23% | 1021.9 hPa | 0 mm | - | 142 W/m² | - |
| 1777684203 | 20° C | 23% | 1021.9 hPa | 0 mm | - | 181 W/m² | - |
| 1777683603 | 19.44° C | 23% | 1021.9 hPa | 0 mm | - | 220 W/m² | - |
* Rain latest hour (hover to see other rain measurements)
** Current wind speed in m/s (hover to see current wind gust speed)